createdAt,value
2019-03-27T00:00:58.546Z,0
2019-03-27T00:01:58.572Z,0
2019-03-27T00:02:58.544Z,0
2019-03-27T00:03:58.551Z,0
2019-03-27T00:04:58.485Z,0
2019-03-27T00:05:58.502Z,0
2019-03-27T00:06:58.446Z,0
2019-03-27T00:07:58.478Z,0
2019-03-27T00:08:58.420Z,0
2019-03-27T00:09:58.464Z,0
2019-03-27T00:10:58.411Z,0
2019-03-27T00:11:58.416Z,0
2019-03-27T00:12:58.358Z,0
2019-03-27T00:13:58.115Z,0
2019-03-27T00:15:11.461Z,0
2019-03-27T00:15:58.382Z,0
2019-03-27T00:16:58.307Z,0
2019-03-27T00:17:58.094Z,0
2019-03-27T00:18:58.301Z,0
2019-03-27T00:19:58.314Z,0
2019-03-27T00:20:58.246Z,0
2019-03-27T00:21:58.265Z,0
2019-03-27T00:22:58.206Z,0
2019-03-27T00:23:58.253Z,0
2019-03-27T00:24:58.194Z,0
2019-03-27T00:25:58.220Z,0
2019-03-27T00:26:58.177Z,0
2019-03-27T00:27:58.180Z,0
2019-03-27T00:28:58.116Z,0
2019-03-27T00:29:58.125Z,0
2019-03-27T00:30:58.418Z,0
2019-03-27T00:31:58.118Z,0
2019-03-27T00:32:58.118Z,0
2019-03-27T00:33:58.063Z,0
2019-03-27T00:34:57.844Z,0
2019-03-27T00:35:58.014Z,0
2019-03-27T00:36:58.069Z,0
2019-03-27T00:37:58.010Z,0
2019-03-27T00:38:57.783Z,0
2019-03-27T00:39:57.966Z,0
2019-03-27T00:40:58.004Z,0
2019-03-27T00:41:57.943Z,0
2019-03-27T00:42:57.953Z,0
2019-03-27T00:43:57.951Z,0
2019-03-27T00:44:57.884Z,0
2019-03-27T00:45:57.883Z,0
2019-03-27T00:46:57.879Z,0
2019-03-27T00:47:57.884Z,0
2019-03-27T00:48:57.891Z,0
2019-03-27T00:49:57.826Z,0
2019-03-27T00:50:57.825Z,0
2019-03-27T00:51:57.799Z,0
2019-03-27T00:52:57.843Z,0
2019-03-27T00:53:57.783Z,0
2019-03-27T00:54:57.796Z,0
2019-03-27T00:55:57.733Z,0
2019-03-27T00:56:57.759Z,0
2019-03-27T00:57:57.692Z,0
2019-03-27T00:58:57.715Z,0
2019-03-27T00:59:57.683Z,0
2019-03-27T01:00:57.475Z,0
2019-03-27T01:01:57.674Z,0
2019-03-27T01:02:57.649Z,0
2019-03-27T01:03:57.629Z,0
2019-03-27T01:04:57.595Z,0
2019-03-27T01:05:57.620Z,0
2019-03-27T01:07:00.405Z,0
2019-03-27T01:07:57.574Z,0
2019-03-27T01:08:57.596Z,0
2019-03-27T01:09:57.551Z,0
2019-03-27T01:10:57.561Z,0
2019-03-27T01:11:57.505Z,0
2019-03-27T01:12:57.544Z,0
2019-03-27T01:13:57.455Z,0
2019-03-27T01:14:57.473Z,0
2019-03-27T01:15:57.447Z,0
2019-03-27T01:16:57.484Z,0
2019-03-27T01:17:57.448Z,0
2019-03-27T01:18:57.420Z,0
2019-03-27T01:19:57.384Z,0
2019-03-27T01:20:57.358Z,0
2019-03-27T01:21:57.393Z,0
2019-03-27T01:22:57.373Z,0
2019-03-27T01:23:57.372Z,0
2019-03-27T01:24:57.308Z,0
2019-03-27T01:25:57.353Z,0
2019-03-27T01:26:57.270Z,0
2019-03-27T01:27:57.325Z,0
2019-03-27T01:28:57.246Z,0
2019-03-27T01:29:57.288Z,0
2019-03-27T01:30:57.238Z,0
2019-03-27T01:31:57.243Z,0
2019-03-27T01:32:57.201Z,0
2019-03-27T01:33:57.229Z,0
2019-03-27T01:34:57.187Z,0
2019-03-27T01:35:57.157Z,0
2019-03-27T01:36:56.888Z,0
2019-03-27T01:37:57.155Z,0
2019-03-27T01:38:57.132Z,0
2019-03-27T01:39:57.153Z,0
2019-03-27T01:40:57.070Z,0
2019-03-27T01:41:57.143Z,0
2019-03-27T01:42:57.054Z,0
2019-03-27T01:43:57.088Z,0
2019-03-27T01:44:57.042Z,0
2019-03-27T01:46:02.669Z,0
2019-03-27T01:46:57.015Z,0
2019-03-27T01:47:56.988Z,0
2019-03-27T01:48:56.781Z,0
2019-03-27T01:49:56.983Z,0
2019-03-27T01:50:56.981Z,0
2019-03-27T01:51:56.930Z,0
2019-03-27T01:52:56.912Z,0
2019-03-27T01:53:56.938Z,0
2019-03-27T01:54:56.906Z,0
2019-03-27T01:55:56.920Z,0
2019-03-27T01:56:56.846Z,0
2019-03-27T01:57:56.957Z,0
2019-03-27T01:58:56.858Z,0
2019-03-27T01:59:56.815Z,0
2019-03-27T02:00:56.916Z,0
2019-03-27T02:01:56.534Z,0
2019-03-27T02:02:56.791Z,0
2019-03-27T02:03:56.764Z,0
2019-03-27T02:04:56.548Z,0
2019-03-27T02:05:56.763Z,0
2019-03-27T02:06:56.733Z,0
2019-03-27T02:07:56.700Z,0
2019-03-27T02:08:56.694Z,0
2019-03-27T02:09:56.714Z,0
2019-03-27T02:10:56.682Z,0
2019-03-27T02:11:56.692Z,0
2019-03-27T02:12:56.624Z,0
2019-03-27T02:13:56.657Z,0
2019-03-27T02:14:56.592Z,0
2019-03-27T02:16:09.042Z,0
2019-03-27T02:16:56.604Z,0
2019-03-27T02:17:56.615Z,0
2019-03-27T02:18:56.580Z,0
2019-03-27T02:19:56.572Z,0
2019-03-27T02:20:56.509Z,0
2019-03-27T02:21:56.518Z,0
2019-03-27T02:22:56.531Z,0
2019-03-27T02:23:56.519Z,0
2019-03-27T02:24:56.460Z,0
2019-03-27T02:25:56.486Z,0
2019-03-27T02:26:56.480Z,0
2019-03-27T02:27:56.483Z,0
2019-03-27T02:28:56.179Z,0
2019-03-27T02:29:56.433Z,0
2019-03-27T02:30:56.148Z,0
2019-03-27T02:31:56.416Z,0
2019-03-27T02:32:56.131Z,0
2019-03-27T02:33:56.420Z,0
2019-03-27T02:34:56.396Z,0
2019-03-27T02:35:56.385Z,0
2019-03-27T02:36:56.323Z,0
2019-03-27T02:37:56.337Z,0
2019-03-27T02:38:56.311Z,0
2019-03-27T02:39:56.334Z,0
2019-03-27T02:40:56.304Z,0
2019-03-27T02:41:56.287Z,0
2019-03-27T02:42:56.252Z,0
2019-03-27T02:43:56.251Z,0
2019-03-27T02:44:56.251Z,0
2019-03-27T02:45:56.207Z,0
2019-03-27T02:46:56.234Z,0
2019-03-27T02:47:56.192Z,0
2019-03-27T02:48:56.217Z,0
2019-03-27T02:49:55.911Z,0
2019-03-27T02:50:56.183Z,0
2019-03-27T02:51:56.165Z,0
2019-03-27T02:52:55.886Z,0
2019-03-27T02:53:56.132Z,0
2019-03-27T02:54:56.112Z,0
2019-03-27T02:55:56.097Z,0
2019-03-27T02:56:56.101Z,0
2019-03-27T02:57:56.062Z,0
2019-03-27T02:58:56.078Z,0
2019-03-27T02:59:56.027Z,0
2019-03-27T03:00:56.084Z,0
2019-03-27T03:01:57.775Z,0
2019-03-27T03:02:56.045Z,0
2019-03-27T03:03:55.968Z,0
2019-03-27T03:04:55.995Z,0
2019-03-27T03:05:55.939Z,0
2019-03-27T03:06:55.940Z,0
2019-03-27T03:07:55.915Z,0
2019-03-27T03:08:55.953Z,0
2019-03-27T03:09:55.914Z,0
2019-03-27T03:10:55.877Z,0
2019-03-27T03:11:55.899Z,0
2019-03-27T03:12:55.851Z,0
2019-03-27T03:13:55.856Z,0
2019-03-27T03:14:55.826Z,0
2019-03-27T03:15:55.810Z,0
2019-03-27T03:16:55.833Z,0
2019-03-27T03:17:55.780Z,0
2019-03-27T03:18:55.985Z,0
2019-03-27T03:19:55.759Z,0
2019-03-27T03:20:55.826Z,0
2019-03-27T03:21:55.471Z,0
2019-03-27T03:22:55.227Z,0
2019-03-27T03:23:55.681Z,0
2019-03-27T03:24:55.841Z,0
2019-03-27T03:25:55.691Z,0
2019-03-27T03:27:00.321Z,0
2019-03-27T03:27:55.661Z,0
2019-03-27T03:28:55.660Z,0
2019-03-27T03:29:55.648Z,0
2019-03-27T03:30:55.883Z,0
2019-03-27T03:31:55.599Z,0
2019-03-27T03:32:55.655Z,0
2019-03-27T03:33:55.608Z,0
2019-03-27T03:34:55.863Z,0
2019-03-27T03:35:55.545Z,0
2019-03-27T03:36:55.559Z,0
2019-03-27T03:37:55.510Z,0
2019-03-27T03:38:55.516Z,0
2019-03-27T03:39:55.491Z,0
2019-03-27T03:40:55.510Z,0
2019-03-27T03:41:55.454Z,0
2019-03-27T03:42:55.453Z,0
2019-03-27T03:43:55.450Z,0
2019-03-27T03:44:55.469Z,0
2019-03-27T03:45:55.400Z,0
2019-03-27T03:47:08.625Z,0
2019-03-27T03:47:55.112Z,0
2019-03-27T03:48:55.390Z,0
2019-03-27T03:49:55.457Z,0
2019-03-27T03:50:55.467Z,0
2019-03-27T03:51:55.330Z,0
2019-03-27T03:52:55.765Z,0
2019-03-27T03:53:55.047Z,0
2019-03-27T03:54:55.304Z,0
2019-03-27T03:55:55.305Z,0
2019-03-27T03:56:55.059Z,0
2019-03-27T03:57:55.264Z,0
2019-03-27T03:58:55.257Z,0
2019-03-27T03:59:55.198Z,0
2019-03-27T04:00:54.982Z,0
2019-03-27T04:01:55.213Z,0
2019-03-27T04:02:55.178Z,0
2019-03-27T04:03:55.359Z,0
2019-03-27T04:04:55.143Z,0
2019-03-27T04:05:55.243Z,0
2019-03-27T04:06:55.133Z,0
2019-03-27T04:07:54.871Z,0
2019-03-27T04:08:55.146Z,0
2019-03-27T04:09:55.063Z,0
2019-03-27T04:10:55.098Z,0
2019-03-27T04:11:55.073Z,0
2019-03-27T04:12:55.101Z,0
2019-03-27T04:13:55.078Z,0
2019-03-27T04:14:55.045Z,0
2019-03-27T04:15:55.027Z,0
2019-03-27T04:16:54.981Z,0
2019-03-27T04:17:55.135Z,0
2019-03-27T04:18:54.968Z,0
2019-03-27T04:19:55.045Z,0
2019-03-27T04:20:54.964Z,0
2019-03-27T04:21:54.949Z,0
2019-03-27T04:22:54.904Z,0
2019-03-27T04:23:54.927Z,0
2019-03-27T04:24:54.878Z,0
2019-03-27T04:26:18.636Z,0
2019-03-27T04:26:54.914Z,0
2019-03-27T04:27:54.888Z,0
2019-03-27T04:28:54.819Z,0
2019-03-27T04:29:54.872Z,0
2019-03-27T04:30:54.832Z,0
2019-03-27T04:31:54.870Z,0
2019-03-27T04:32:54.805Z,0
2019-03-27T04:33:54.822Z,0
2019-03-27T04:34:56.945Z,0
2019-03-27T04:35:54.789Z,0
2019-03-27T04:36:54.729Z,0
2019-03-27T04:37:54.770Z,0
2019-03-27T04:38:54.727Z,0
2019-03-27T04:39:54.743Z,0
2019-03-27T04:40:54.692Z,0
2019-03-27T04:41:54.742Z,0
2019-03-27T04:42:54.744Z,0
2019-03-27T04:43:54.745Z,0
2019-03-27T04:44:54.627Z,0
2019-03-27T04:45:54.646Z,0
2019-03-27T04:46:54.637Z,0
2019-03-27T04:47:54.651Z,0
2019-03-27T04:48:54.381Z,0
2019-03-27T04:49:54.577Z,0
2019-03-27T04:50:54.573Z,0
2019-03-27T04:51:54.547Z,0
2019-03-27T04:52:54.576Z,5
2019-03-27T04:53:54.533Z,5
2019-03-27T04:54:54.547Z,5
2019-03-27T04:55:54.496Z,5
2019-03-27T04:56:54.525Z,5
2019-03-27T04:57:54.493Z,5
2019-03-27T04:58:54.472Z,5
2019-03-27T04:59:54.472Z,5
2019-03-27T05:00:54.442Z,5
2019-03-27T05:01:54.423Z,10
2019-03-27T05:02:54.427Z,10
2019-03-27T05:03:54.435Z,10
2019-03-27T05:04:54.436Z,15
2019-03-27T05:05:54.383Z,15
2019-03-27T05:06:54.375Z,15
2019-03-27T05:07:54.339Z,20
2019-03-27T05:08:54.386Z,20
2019-03-27T05:09:54.325Z,25
2019-03-27T05:10:54.353Z,25
2019-03-27T05:11:54.335Z,25
2019-03-27T05:12:54.272Z,30
2019-03-27T05:13:54.328Z,25
2019-03-27T05:14:54.279Z,25
2019-03-27T05:15:54.278Z,20
2019-03-27T05:16:54.226Z,20
2019-03-27T05:17:56.010Z,20
2019-03-27T05:18:54.240Z,20
2019-03-27T05:19:54.234Z,20
2019-03-27T05:20:54.235Z,20
2019-03-27T05:21:54.189Z,20
2019-03-27T05:22:54.191Z,20
2019-03-27T05:23:54.197Z,25
2019-03-27T05:24:54.134Z,25
2019-03-27T05:25:54.162Z,25
2019-03-27T05:26:54.123Z,25
2019-03-27T05:27:54.141Z,25
2019-03-27T05:28:54.092Z,25
2019-03-27T05:29:54.128Z,25
2019-03-27T05:30:54.118Z,25
2019-03-27T05:31:54.128Z,25
2019-03-27T05:32:54.125Z,25
2019-03-27T05:33:54.047Z,25
2019-03-27T05:34:54.041Z,25
2019-03-27T05:35:54.041Z,30
2019-03-27T05:36:54.428Z,30
2019-03-27T05:37:53.992Z,30
2019-03-27T05:38:53.991Z,30
2019-03-27T05:39:53.964Z,30
2019-03-27T05:40:53.997Z,35
2019-03-27T05:41:53.955Z,35
2019-03-27T05:43:07.691Z,40
2019-03-27T05:43:53.916Z,40
2019-03-27T05:44:53.953Z,35
2019-03-27T05:45:53.885Z,35
2019-03-27T05:46:53.912Z,40
2019-03-27T05:48:06.518Z,40
2019-03-27T05:48:53.903Z,40
2019-03-27T05:49:53.868Z,40
2019-03-27T05:50:53.612Z,40
2019-03-27T05:51:53.861Z,40
2019-03-27T05:52:53.855Z,40
2019-03-27T05:53:53.900Z,40
2019-03-27T05:54:53.805Z,40
2019-03-27T05:55:53.773Z,45
2019-03-27T05:56:53.809Z,45
2019-03-27T05:57:53.764Z,50
2019-03-27T05:58:53.799Z,50
2019-03-27T05:59:53.735Z,50
2019-03-27T06:00:53.785Z,50
2019-03-27T06:01:53.699Z,50
2019-03-27T06:02:53.720Z,60
2019-03-27T06:03:53.702Z,55
2019-03-27T06:04:53.727Z,55
2019-03-27T06:05:53.697Z,60
2019-03-27T06:06:53.676Z,60
2019-03-27T06:07:53.682Z,60
2019-03-27T06:08:53.629Z,60
2019-03-27T06:09:53.661Z,60
2019-03-27T06:10:53.631Z,55
2019-03-27T06:11:53.650Z,55
2019-03-27T06:12:53.579Z,45
2019-03-27T06:13:53.609Z,45
2019-03-27T06:14:53.592Z,45
2019-03-27T06:15:54.782Z,45
2019-03-27T06:16:53.587Z,45
2019-03-27T06:17:53.586Z,45
2019-03-27T06:18:53.643Z,50
2019-03-27T06:19:53.529Z,55
2019-03-27T06:20:53.312Z,55
2019-03-27T06:21:53.573Z,60
2019-03-27T06:22:53.502Z,65
2019-03-27T06:23:53.531Z,65
2019-03-27T06:24:53.446Z,75
2019-03-27T06:25:53.227Z,80
2019-03-27T06:26:53.453Z,80
2019-03-27T06:27:53.473Z,75
2019-03-27T06:28:53.402Z,70
2019-03-27T06:29:53.476Z,65
2019-03-27T06:30:53.381Z,60
2019-03-27T06:31:53.457Z,60
2019-03-27T06:32:53.366Z,65
2019-03-27T06:33:53.416Z,65
2019-03-27T06:34:53.358Z,65
2019-03-27T06:35:53.366Z,65
2019-03-27T06:36:53.310Z,70
2019-03-27T06:37:53.318Z,70
2019-03-27T06:38:53.313Z,80
2019-03-27T06:39:53.321Z,80
2019-03-27T06:40:53.280Z,85
2019-03-27T06:41:53.296Z,85
2019-03-27T06:42:53.281Z,85
2019-03-27T06:43:53.297Z,85
2019-03-27T06:44:53.234Z,85
2019-03-27T06:45:53.258Z,75
2019-03-27T06:46:53.207Z,75
2019-03-27T06:47:53.268Z,75
2019-03-27T06:48:53.216Z,70
2019-03-27T06:49:52.987Z,70
2019-03-27T06:50:53.200Z,80
2019-03-27T06:51:53.192Z,90
2019-03-27T06:52:52.898Z,85
2019-03-27T06:53:53.157Z,80
2019-03-27T06:54:53.143Z,85
2019-03-27T06:55:53.152Z,85
2019-03-27T06:56:53.150Z,90
2019-03-27T06:57:53.118Z,85
2019-03-27T06:59:04.004Z,90
2019-03-27T06:59:53.064Z,95
2019-03-27T07:00:53.113Z,85
2019-03-27T07:01:53.061Z,90
2019-03-27T07:02:53.094Z,80
2019-03-27T07:03:53.037Z,75
2019-03-27T07:04:53.063Z,70
2019-03-27T07:05:53.088Z,70
2019-03-27T07:06:53.020Z,75
2019-03-27T07:07:53.134Z,65
2019-03-27T07:08:52.973Z,55
2019-03-27T07:09:52.978Z,60
2019-03-27T07:10:52.969Z,65
2019-03-27T07:11:52.978Z,55
2019-03-27T07:12:52.996Z,70
2019-03-27T07:13:52.930Z,75
2019-03-27T07:14:52.943Z,85
2019-03-27T07:15:52.723Z,105
2019-03-27T07:16:52.933Z,100
2019-03-27T07:17:52.885Z,105
2019-03-27T07:18:52.943Z,100
2019-03-27T07:19:52.868Z,105
2019-03-27T07:20:52.907Z,110
2019-03-27T07:21:52.824Z,115
2019-03-27T07:22:52.853Z,130
2019-03-27T07:23:52.822Z,160
2019-03-27T07:24:52.859Z,190
2019-03-27T07:25:52.853Z,225
2019-03-27T07:26:52.808Z,235
2019-03-27T07:27:52.781Z,255
2019-03-27T07:28:52.763Z,245
2019-03-27T07:29:52.789Z,235
2019-03-27T07:30:52.766Z,235
2019-03-27T07:31:52.742Z,270
2019-03-27T07:32:52.777Z,285
2019-03-27T07:33:52.719Z,275
2019-03-27T07:34:52.752Z,260
2019-03-27T07:35:52.699Z,265
2019-03-27T07:36:55.943Z,280
2019-03-27T07:37:52.661Z,300
2019-03-27T07:38:52.690Z,275
2019-03-27T07:39:52.655Z,255
2019-03-27T07:40:52.765Z,290
2019-03-27T07:41:52.663Z,300
2019-03-27T07:42:52.653Z,305
2019-03-27T07:43:52.652Z,255
2019-03-27T07:44:52.600Z,265
2019-03-27T07:45:52.628Z,350
2019-03-27T07:46:52.647Z,370
2019-03-27T07:47:55.343Z,350
2019-03-27T07:49:02.791Z,350
2019-03-27T07:49:52.593Z,350
2019-03-27T07:50:52.546Z,335
2019-03-27T07:51:52.573Z,345
2019-03-27T07:52:52.527Z,375
2019-03-27T07:53:52.568Z,420
2019-03-27T07:54:52.535Z,440
2019-03-27T07:55:52.547Z,435
2019-03-27T07:56:52.501Z,380
2019-03-27T07:57:52.522Z,330
2019-03-27T07:58:52.500Z,335
2019-03-27T07:59:52.479Z,350
2019-03-27T08:00:52.496Z,370
2019-03-27T08:01:52.490Z,375
2019-03-27T08:02:52.473Z,350
2019-03-27T08:03:52.537Z,335
2019-03-27T08:04:52.431Z,290
2019-03-27T08:05:52.458Z,255
2019-03-27T08:06:52.415Z,240
2019-03-27T08:07:52.485Z,220
2019-03-27T08:08:52.416Z,250
2019-03-27T08:09:52.443Z,280
2019-03-27T08:10:52.488Z,265
2019-03-27T08:11:52.416Z,280
2019-03-27T08:12:52.386Z,330
2019-03-27T08:13:52.386Z,385
2019-03-27T08:14:52.383Z,415
2019-03-27T08:15:52.382Z,410
2019-03-27T08:16:52.396Z,410
2019-03-27T08:17:52.360Z,445
2019-03-27T08:18:52.343Z,475
2019-03-27T08:19:52.305Z,440
2019-03-27T08:20:52.358Z,400
2019-03-27T08:21:52.371Z,375
2019-03-27T08:22:52.067Z,385
2019-03-27T08:23:52.324Z,360
2019-03-27T08:24:52.305Z,435
2019-03-27T08:25:52.329Z,515
2019-03-27T08:26:52.287Z,555
2019-03-27T08:27:52.301Z,560
2019-03-27T08:28:52.248Z,570
2019-03-27T08:29:52.263Z,570
2019-03-27T08:30:52.254Z,565
2019-03-27T08:31:52.272Z,545
2019-03-27T08:32:52.275Z,505
2019-03-27T08:33:52.230Z,520
2019-03-27T08:34:52.317Z,550
2019-03-27T08:35:52.078Z,565
2019-03-27T08:36:52.198Z,580
2019-03-27T08:37:52.324Z,605
2019-03-27T08:38:52.193Z,625
2019-03-27T08:39:52.235Z,625
2019-03-27T08:40:52.200Z,630
2019-03-27T08:41:52.220Z,625
2019-03-27T08:42:52.184Z,595
2019-03-27T08:43:52.190Z,615
2019-03-27T08:44:52.146Z,625
2019-03-27T08:45:52.173Z,635
2019-03-27T08:46:52.162Z,660
2019-03-27T08:47:52.175Z,675
2019-03-27T08:48:52.134Z,695
2019-03-27T08:49:52.159Z,695
2019-03-27T08:50:51.903Z,650
2019-03-27T08:51:52.168Z,645
2019-03-27T08:52:52.199Z,630
2019-03-27T08:53:52.138Z,595
2019-03-27T08:54:52.098Z,585
2019-03-27T08:55:51.885Z,580
2019-03-27T08:56:52.086Z,595
2019-03-27T08:57:51.884Z,585
2019-03-27T08:58:52.105Z,550
2019-03-27T08:59:52.135Z,550
2019-03-27T09:00:52.098Z,580
2019-03-27T09:01:52.078Z,605
2019-03-27T09:02:52.077Z,590
2019-03-27T09:03:52.098Z,590
2019-03-27T09:04:52.092Z,590
2019-03-27T09:05:52.054Z,590
2019-03-27T09:06:52.056Z,575
2019-03-27T09:07:52.028Z,595
2019-03-27T09:08:52.073Z,620
2019-03-27T09:09:52.036Z,565
2019-03-27T09:10:52.072Z,575
2019-03-27T09:11:52.039Z,540
2019-03-27T09:12:52.065Z,560
2019-03-27T09:13:52.017Z,595
2019-03-27T09:14:52.026Z,585
2019-03-27T09:15:52.078Z,525
2019-03-27T09:16:52.009Z,450
2019-03-27T09:17:52.039Z,410
2019-03-27T09:18:51.774Z,405
2019-03-27T09:19:52.026Z,395
2019-03-27T09:20:52.030Z,385
2019-03-27T09:21:51.980Z,420
2019-03-27T09:22:51.992Z,465
2019-03-27T09:23:55.185Z,505
2019-03-27T09:24:52.030Z,470
2019-03-27T09:25:51.732Z,340
2019-03-27T09:26:51.996Z,265
2019-03-27T09:27:51.960Z,245
2019-03-27T09:28:54.231Z,275
2019-03-27T09:29:51.925Z,305
2019-03-27T09:30:51.934Z,300
2019-03-27T09:31:54.747Z,270
2019-03-27T09:32:51.951Z,285
2019-03-27T09:33:51.962Z,305
2019-03-27T09:34:51.918Z,295
2019-03-27T09:35:52.228Z,300
2019-03-27T09:36:51.912Z,330
2019-03-27T09:37:51.935Z,365
2019-03-27T09:38:51.684Z,355
2019-03-27T09:39:51.903Z,345
2019-03-27T09:40:51.907Z,345
2019-03-27T09:41:51.892Z,310
2019-03-27T09:42:51.923Z,245
2019-03-27T09:43:51.879Z,215
2019-03-27T09:44:51.648Z,210
2019-03-27T09:45:51.840Z,230
2019-03-27T09:46:51.849Z,240
2019-03-27T09:47:51.854Z,270
2019-03-27T09:48:51.891Z,330
2019-03-27T09:49:58.736Z,395
2019-03-27T09:50:51.833Z,435
2019-03-27T09:51:51.828Z,450
2019-03-27T09:52:51.798Z,445
2019-03-27T09:53:53.218Z,415
2019-03-27T09:54:51.814Z,415
2019-03-27T09:55:51.833Z,450
2019-03-27T09:56:51.787Z,435
2019-03-27T09:57:51.816Z,435
2019-03-27T09:58:51.749Z,450
2019-03-27T09:59:51.786Z,470
2019-03-27T10:00:51.853Z,455
2019-03-27T10:01:51.875Z,420
2019-03-27T10:02:51.522Z,375
2019-03-27T10:03:51.759Z,335
2019-03-27T10:04:51.735Z,295
2019-03-27T10:05:51.770Z,325
2019-03-27T10:06:53.142Z,405
2019-03-27T10:07:51.674Z,420
2019-03-27T10:08:51.670Z,350
2019-03-27T10:09:54.990Z,350
2019-03-27T10:10:51.688Z,395
2019-03-27T10:11:51.660Z,445
2019-03-27T10:12:51.650Z,460
2019-03-27T10:13:51.641Z,505
2019-03-27T10:14:54.738Z,475
2019-03-27T10:15:51.709Z,420
2019-03-27T10:16:51.618Z,405
2019-03-27T10:17:51.609Z,445
2019-03-27T10:18:54.376Z,540
2019-03-27T10:20:05.169Z,615
2019-03-27T10:20:51.601Z,620
2019-03-27T10:21:51.589Z,575
2019-03-27T10:22:51.596Z,465
2019-03-27T10:23:51.577Z,395
2019-03-27T10:24:51.580Z,335
2019-03-27T10:25:51.652Z,290
2019-03-27T10:26:52.295Z,250
2019-03-27T10:27:51.560Z,240
2019-03-27T10:28:51.558Z,260
2019-03-27T10:29:51.559Z,265
2019-03-27T10:30:51.539Z,255
2019-03-27T10:31:51.548Z,245
2019-03-27T10:32:51.645Z,230
2019-03-27T10:33:51.522Z,205
2019-03-27T10:34:51.519Z,195
2019-03-27T10:35:51.573Z,215
2019-03-27T10:36:51.511Z,240
2019-03-27T10:37:51.572Z,230
2019-03-27T10:38:51.659Z,235
2019-03-27T10:39:51.491Z,245
2019-03-27T10:40:51.485Z,235
2019-03-27T10:41:51.481Z,230
2019-03-27T10:42:51.488Z,245
2019-03-27T10:43:51.465Z,255
2019-03-27T10:44:51.470Z,245
2019-03-27T10:45:51.473Z,250
2019-03-27T10:46:51.452Z,270
2019-03-27T10:47:51.440Z,275
2019-03-27T10:49:02.247Z,270
2019-03-27T10:49:51.189Z,280
2019-03-27T10:50:51.441Z,320
2019-03-27T10:51:51.417Z,315
2019-03-27T10:52:51.501Z,320
2019-03-27T10:53:51.407Z,395
2019-03-27T10:54:51.493Z,450
2019-03-27T10:55:51.393Z,400
2019-03-27T10:56:51.384Z,310
2019-03-27T10:57:51.143Z,250
2019-03-27T10:58:51.385Z,265
2019-03-27T10:59:51.392Z,345
2019-03-27T11:00:51.384Z,410
2019-03-27T11:01:51.355Z,445
2019-03-27T11:02:51.349Z,435
2019-03-27T11:03:51.334Z,410
2019-03-27T11:04:51.329Z,385
2019-03-27T11:05:51.330Z,365
2019-03-27T11:06:51.326Z,340
2019-03-27T11:07:51.309Z,310
2019-03-27T11:08:51.313Z,290
2019-03-27T11:09:51.296Z,295
2019-03-27T11:10:51.301Z,285
2019-03-27T11:11:51.288Z,300
2019-03-27T11:12:51.281Z,305
2019-03-27T11:13:51.278Z,270
2019-03-27T11:14:51.269Z,245
2019-03-27T11:15:51.261Z,230
2019-03-27T11:16:51.252Z,240
2019-03-27T11:17:51.247Z,280
2019-03-27T11:18:51.026Z,365
2019-03-27T11:19:51.241Z,460
2019-03-27T11:20:51.233Z,515
2019-03-27T11:21:51.221Z,495
2019-03-27T11:22:51.212Z,450
2019-03-27T11:23:51.206Z,440
2019-03-27T11:24:51.265Z,420
2019-03-27T11:25:51.501Z,395
2019-03-27T11:26:51.187Z,360
2019-03-27T11:27:51.191Z,335
2019-03-27T11:28:51.179Z,335
2019-03-27T11:29:51.165Z,335
2019-03-27T11:30:53.163Z,325
2019-03-27T11:31:51.156Z,315
2019-03-27T11:32:51.355Z,335
2019-03-27T11:33:51.236Z,320
2019-03-27T11:34:51.138Z,285
2019-03-27T11:39:37.449Z,375
2019-03-27T11:40:37.446Z,380
2019-03-27T11:41:37.440Z,405
2019-03-27T11:42:37.441Z,355
2019-03-27T11:43:37.422Z,370
2019-03-27T11:44:37.419Z,395
2019-03-27T11:45:37.421Z,370
2019-03-27T11:46:39.388Z,365
2019-03-27T11:47:37.401Z,365
2019-03-27T11:48:37.401Z,390
2019-03-27T11:49:37.420Z,390
2019-03-27T11:50:51.097Z,345
2019-03-27T11:51:37.377Z,305
2019-03-27T11:52:39.186Z,310
2019-03-27T11:53:37.362Z,335
2019-03-27T11:54:37.370Z,360
2019-03-27T11:55:37.465Z,370
2019-03-27T11:56:37.363Z,325
2019-03-27T11:57:37.335Z,325
2019-03-27T11:58:37.336Z,355
2019-03-27T11:59:37.363Z,405
2019-03-27T12:00:37.318Z,465
2019-03-27T12:01:51.002Z,540
2019-03-27T12:02:37.307Z,575
2019-03-27T12:03:37.310Z,570
2019-03-27T12:04:37.304Z,535
2019-03-27T12:05:37.292Z,475
2019-03-27T12:06:37.287Z,375
2019-03-27T12:07:37.291Z,330
2019-03-27T12:08:37.270Z,295
2019-03-27T12:09:37.258Z,275
2019-03-27T12:10:37.258Z,250
2019-03-27T12:11:37.268Z,260
2019-03-27T12:12:37.251Z,285
2019-03-27T12:13:37.309Z,295
2019-03-27T12:14:37.244Z,305
2019-03-27T12:15:37.236Z,270
2019-03-27T12:16:37.228Z,265
2019-03-27T12:17:37.216Z,280
2019-03-27T12:18:39.244Z,285
2019-03-27T12:19:40.190Z,295
2019-03-27T12:20:37.289Z,355
2019-03-27T12:21:37.204Z,440
2019-03-27T12:22:37.191Z,490
2019-03-27T12:23:37.181Z,505
2019-03-27T12:24:38.038Z,495
2019-03-27T12:25:37.176Z,495
2019-03-27T12:26:37.174Z,550
2019-03-27T12:27:37.164Z,565
2019-03-27T12:28:37.146Z,555
2019-03-27T12:29:37.245Z,520
2019-03-27T12:30:37.165Z,435
2019-03-27T12:31:37.156Z,375
2019-03-27T12:32:37.181Z,360
2019-03-27T12:33:37.124Z,350
2019-03-27T12:34:39.305Z,330
2019-03-27T12:35:37.114Z,330
2019-03-27T12:36:37.166Z,335
2019-03-27T12:37:37.121Z,340
2019-03-27T12:38:37.104Z,360
2019-03-27T12:39:37.107Z,370
2019-03-27T12:40:37.084Z,390
2019-03-27T12:41:40.097Z,440
2019-03-27T12:42:37.068Z,450
2019-03-27T12:43:37.062Z,450
2019-03-27T12:44:37.060Z,470
2019-03-27T12:45:37.060Z,485
2019-03-27T12:46:37.059Z,470
2019-03-27T12:47:36.809Z,425
2019-03-27T12:48:37.040Z,400
2019-03-27T12:49:37.038Z,380
2019-03-27T12:50:37.032Z,425
2019-03-27T12:51:37.032Z,445
2019-03-27T12:52:37.128Z,465
2019-03-27T12:53:37.019Z,460
2019-03-27T12:54:36.765Z,425
2019-03-27T12:55:36.997Z,360
2019-03-27T12:56:36.994Z,300
2019-03-27T12:57:36.997Z,280
2019-03-27T12:58:36.745Z,280
2019-03-27T12:59:36.989Z,285
2019-03-27T13:00:36.974Z,290
2019-03-27T13:01:36.738Z,305
2019-03-27T13:02:36.984Z,350
2019-03-27T13:03:36.967Z,395
2019-03-27T13:04:36.975Z,415
2019-03-27T13:05:36.957Z,445
2019-03-27T13:06:36.948Z,465
2019-03-27T13:07:49.282Z,450
2019-03-27T13:08:36.940Z,420
2019-03-27T13:09:36.934Z,420
2019-03-27T13:10:36.936Z,415
2019-03-27T13:11:39.156Z,395
2019-03-27T13:12:36.913Z,320
2019-03-27T13:13:36.936Z,315
2019-03-27T13:14:36.958Z,345
2019-03-27T13:15:36.947Z,365
2019-03-27T13:16:36.968Z,360
2019-03-27T13:17:39.143Z,350
2019-03-27T13:18:36.926Z,355
2019-03-27T13:19:36.942Z,375
2019-03-27T13:20:36.973Z,380
2019-03-27T13:21:36.950Z,370
2019-03-27T13:22:38.342Z,360
2019-03-27T13:23:36.986Z,350
2019-03-27T13:24:36.898Z,370
2019-03-27T13:25:36.676Z,375
2019-03-27T13:26:36.869Z,340
2019-03-27T13:27:36.892Z,340
2019-03-27T13:28:50.591Z,400
2019-03-27T13:29:37.002Z,425
2019-03-27T13:30:36.880Z,425
2019-03-27T13:31:36.871Z,425
2019-03-27T13:32:36.862Z,430
2019-03-27T13:33:36.886Z,435
2019-03-27T13:34:36.840Z,450
2019-03-27T13:35:36.859Z,450
2019-03-27T13:36:36.812Z,425
2019-03-27T13:37:36.957Z,410
2019-03-27T13:38:36.819Z,395
2019-03-27T13:39:36.859Z,370
2019-03-27T13:40:36.808Z,345
2019-03-27T13:41:36.929Z,315
2019-03-27T13:42:36.586Z,325
2019-03-27T13:43:36.805Z,330
2019-03-27T13:44:46.412Z,285
2019-03-27T13:45:36.824Z,250
2019-03-27T13:46:36.804Z,230
2019-03-27T13:47:36.786Z,230
2019-03-27T13:48:36.760Z,240
2019-03-27T13:49:36.771Z,275
2019-03-27T13:50:36.781Z,295
2019-03-27T13:51:49.958Z,320
2019-03-27T13:52:36.788Z,320
2019-03-27T13:53:36.723Z,290
2019-03-27T13:54:36.762Z,250
2019-03-27T13:55:40.009Z,230
2019-03-27T13:56:36.752Z,250
2019-03-27T13:57:36.705Z,305
2019-03-27T13:58:36.738Z,350
2019-03-27T13:59:36.730Z,380
2019-03-27T14:00:36.454Z,385
2019-03-27T14:01:36.739Z,390
2019-03-27T14:02:36.715Z,370
2019-03-27T14:03:36.701Z,345
2019-03-27T14:04:36.684Z,340
2019-03-27T14:05:36.657Z,335
2019-03-27T14:06:36.721Z,310
2019-03-27T14:07:36.682Z,305
2019-03-27T14:08:36.702Z,295
2019-03-27T14:09:36.632Z,285
2019-03-27T14:10:36.668Z,265
2019-03-27T14:11:36.617Z,245
2019-03-27T14:12:36.660Z,245
2019-03-27T14:13:36.612Z,265
2019-03-27T14:14:49.547Z,280
2019-03-27T14:15:36.690Z,265